Flight Track Log - Related Links

Times and Time Zones

All times are in EDT time to prevent confusion due to time zone crossing. See the NKS347 flight status page for this flight to view local times or setup timezone preferences in your user account.

Time Position Orientation Groundspeed Altitude Reporting Facility
EDT Latitude Longitude Course Direction KTS MPH feet Rate Location/Type
Thu 04:11:46 PM 42.2314 -83.3342 39° Northeast 136 157 1,300  Level Cleveland Center
Thu 04:13:30 PM 42.2997 -83.2586 46° Northeast 239 275 4,500 2,364 Climbing Cleveland Center
Thu 04:14:31 PM 42.3536 -83.1822 107° East 292 336 7,800 2,702 Climbing Cleveland Center
Thu 04:15:41 PM 42.3253 -83.0575 112° Southeast 328 377 10,400 2,077 Climbing Cleveland Center
Thu 04:16:41 PM 42.2861 -82.9267 111° Southeast 342 394 12,300 1,300 Climbing Cleveland Center
Thu 04:17:41 PM 42.2472 -82.7878 105° East 378 435 13,000 350 Climbing Cleveland Center
Thu 04:18:41 PM 42.2206 -82.6494 89° East 392 451 13,000 1,100 Level Cleveland Center
Thu 04:19:41 PM 42.2233 -82.4983 92° East 386 444 15,200 2,250 Climbing Cleveland Center
Thu 04:20:41 PM 42.2194 -82.3439 97° East 403 464 17,500 2,400 Climbing Cleveland Center
Thu 04:21:41 PM 42.2053 -82.1808 95° East 427 491 20,000 2,250 Climbing Cleveland Center
Thu 04:22:41 PM 42.1950 -82.0097 118° Southeast 449 517 22,000 1,500 Climbing Cleveland Center
Thu 04:23:41 PM 42.1403 -81.8739 140° Southeast 449 517 23,000 1,400 Climbing Cleveland Center
Thu 04:24:41 PM 42.0353 -81.7572 139° Southeast 447 514 24,800 1,850 Climbing Cleveland Center
Thu 04:25:41 PM 41.9364 -81.6411 140° Southeast 463 533 26,700 1,750 Climbing Cleveland Center
Thu 04:26:41 PM 41.8311 -81.5222 139° Southeast 488 562 28,300 1,750 Climbing Cleveland Center
Thu 04:27:41 PM 41.7297 -81.4039 140° Southeast 493 567 30,200 1,650 Climbing Cleveland Center
Thu 04:28:41 PM 41.6161 -81.2747 133° Southeast 492 566 31,600 1,150 Climbing Cleveland Center
Thu 04:29:41 PM 41.5189 -81.1378 99° East 492 566 32,500 1,050 Climbing Cleveland Center
Thu 04:30:41 PM 41.4967 -80.9464 96° East 497 572 33,700 1,200 Climbing Cleveland Center
Thu 04:31:41 PM 41.4803 -80.7550 97° East 504 580 34,900 650 Climbing Cleveland Center
Thu 04:32:41 PM 41.4639 -80.5664 97° East 517 595 35,000 50 Climbing Cleveland Center
Thu 04:33:41 PM 41.4450 -80.3753 96° East 517 595 35,000  Level Cleveland Center
Thu 04:34:41 PM 41.4319 -80.2064 98° East 517 595 35,000  Level Cleveland Center
Thu 04:35:41 PM 41.4125 -80.0156 98° East 522 601 35,000 50 Level Cleveland Center
Thu 04:36:41 PM 41.3925 -79.8275 97° East 522 601 35,100  Climbing Cleveland Center
Thu 04:37:41 PM 41.3744 -79.6394 97° East 517 595 35,000 -50 Descending Cleveland Center
Thu 04:38:41 PM 41.3561 -79.4544 98° East 517 595 35,000  Level Cleveland Center
Thu 04:39:41 PM 41.3375 -79.2722 98° East 512 589 35,000  Level Cleveland Center
Thu 04:40:41 PM 41.3186 -79.0903 97° East 501 577 35,000  Level Cleveland Center
Thu 04:41:41 PM 41.3014 -78.9025 98° East 501 577 35,000  Level Cleveland Center
Thu 04:42:41 PM 41.2819 -78.7208 98° East 501 577 35,000  Level Cleveland Center
Thu 04:43:41 PM 41.2622 -78.5444 99° East 501 577 35,000 -333 Level Cleveland Center
Thu 04:45:05 PM 41.2303 -78.2728 99° East 496 571 34,200 -828 Descending New Center
Thu 04:46:06 PM 41.2083 -78.0881 100° East 496 571 33,000 -595 Descending New Center
Thu 04:47:06 PM 41.1839 -77.9061 99° East 496 571 33,000 -763 Level New Center
Thu 04:48:04 PM 41.1617 -77.7192 99° East 496 571 31,500 -1,983 Descending New Center
Thu 04:49:04 PM 41.1392 -77.5322 101° East 501 577 29,100 -1,736 Descending New Center
Thu 04:50:05 PM 41.1136 -77.3561 100° East 501 577 28,000 -1,082 Descending New Center
Thu 04:51:06 PM 41.0917 -77.1858 100° East 481 554 26,900 -1,091 Descending New Center
Thu 04:52:06 PM 41.0694 -77.0186 100° East 468 539 25,800 -966 Descending New Center
Thu 04:53:04 PM 41.0467 -76.8542 101° East 457 526 25,000 -555 Descending New Center
Thu 04:54:05 PM 41.0236 -76.6925 105° East 452 520 24,700 -1,324 Descending New Center
Thu 04:55:20 PM 40.9787 -76.4784 108° East 441 507 22,000 -1,983 Descending FlightAware
Thu 04:56:03 PM 40.9525 -76.3688 108° East 438 504 20,800 -1,816 Descending FlightAware
Thu 04:56:36 PM 40.9320 -76.2841 108° East 434 499 19,700 -1,902 Descending FlightAware
Thu 04:57:25 PM 40.9027 -76.1634 108° East 421 484 18,200 -1,793 Descending FlightAware
Thu 04:58:03 PM 40.8810 -76.0738 108° East 405 466 17,100 -1,565 Descending FlightAware
Thu 04:58:34 PM 40.8638 -76.0039 108° East 389 448 16,400 -1,548 Descending FlightAware
Thu 04:59:05 PM 40.8464 -75.9338 108° East 381 438 15,500 -1,688 Descending FlightAware
Thu 04:59:38 PM 40.8283 -75.8607 108° East 374 430 14,600 -1,565 Descending FlightAware
Thu 05:00:14 PM 40.8096 -75.7845 108° East 369 425 13,700 -1,235 Descending FlightAware
Thu 05:00:46 PM 40.7925 -75.7150 108° East 363 418 13,200 -476 Descending FlightAware
Thu 05:01:17 PM 40.7765 -75.6512 108° East 364 419 13,200  Level FlightAware
Thu 05:01:49 PM 40.7589 -75.5816 108° East 368 423 13,200  Level FlightAware
Thu 05:02:22 PM 40.7416 -75.5123 108° East 367 422 13,200  Level FlightAware
Thu 05:02:52 PM 40.7261 -75.4495 105° East 367 422 13,200  Level FlightAware
Thu 05:03:22 PM 40.7130 -75.3832 105° East 368 423 13,200  Level FlightAware
Thu 05:03:52 PM 40.7000 -75.3179 105° East 367 422 13,200 -98 Level FlightAware
Thu 05:04:23 PM 40.6867 -75.2515 105° East 369 425 13,100 -677 Descending FlightAware
Thu 05:04:54 PM 40.6737 -75.1874 106° East 355 409 12,500 -1,364 Descending FlightAware
Thu 05:05:07 PM 40.6675 -75.1598 113° Southeast 353 406 12,100 -1,875 Descending FlightAware
Thu 05:05:10 PM 40.6653 -75.1531 119° Southeast 353 406 12,000 -1,500 Descending FlightAware
Thu 05:05:15 PM 40.6616 -75.1443 125° Southeast 349 402 11,900 -1,333 Descending FlightAware
Thu 05:05:19 PM 40.6581 -75.1378 132° Southeast 347 399 11,800 -1,500 Descending FlightAware
Thu 05:05:31 PM 40.6450 -75.1188 133° Southeast 342 394 11,500 -1,571 Descending FlightAware
Thu 05:06:01 PM 40.6127 -75.0733 132° Southeast 338 389 10,700 -1,200 Descending FlightAware
Thu 05:06:31 PM 40.5820 -75.0292 132° Southeast 319 367 10,300 -649 Descending FlightAware
Thu 05:06:38 PM 40.5751 -75.0191 127° Southeast 314 361 10,300 -462 Level FlightAware
Thu 05:06:44 PM 40.5706 -75.0113 120° Southeast 317 365 10,200 -545 Descending FlightAware
Thu 05:06:49 PM 40.5664 -75.0016 114° Southeast 320 368 10,200  Level FlightAware
Thu 05:06:55 PM 40.5631 -74.9917 111° Southeast 321 369 10,200  Level FlightAware
Thu 05:07:27 PM 40.5461 -74.9332 111° Southeast 318 366 10,200  Level FlightAware
Thu 05:07:57 PM 40.5305 -74.8793 111° Southeast 317 365 10,200  Level FlightAware
Thu 05:08:27 PM 40.5142 -74.8249 112° Southeast 316 364 10,200  Level FlightAware
Thu 05:08:59 PM 40.4971 -74.7687 112° Southeast 315 362 10,200  Level FlightAware
Thu 05:09:31 PM 40.4799 -74.7120 112° Southeast 316 364 10,200  Level FlightAware
Thu 05:10:01 PM 40.4635 -74.6578 112° Southeast 316 364 10,200  Level FlightAware
Thu 05:10:31 PM 40.4474 -74.6043 111° Southeast 315 362 10,200  Level FlightAware
Thu 05:10:54 PM 40.4354 -74.5642 108° East 315 362 10,200  Level FlightAware
Thu 05:11:00 PM 40.4328 -74.5535 101° East 317 365 10,200  Level FlightAware
Thu 05:11:04 PM 40.4317 -74.5461 91° East 317 365 10,200  Level FlightAware
Thu 05:11:12 PM 40.4315 -74.5310 78° East 318 366 10,200  Level FlightAware
Thu 05:11:18 PM 40.4333 -74.5196 70° East 318 366 10,200 -353 Level FlightAware
Thu 05:11:46 PM 40.4478 -74.4680 69° East 315 362 10,000 -818 Descending FlightAware
Thu 05:12:02 PM 40.4555 -74.4410 70° East 315 362 9,600 -1,548 Descending FlightAware
Thu 05:12:17 PM 40.4629 -74.4138 71° East 316 364 9,200 -1,548 Descending FlightAware
Thu 05:12:33 PM 40.4708 -74.3841 71° East 315 362 8,800 -1,548 Descending FlightAware
Thu 05:12:48 PM 40.4780 -74.3569 71° East 312 359 8,400 -1,548 Descending FlightAware
Thu 05:13:04 PM 40.4856 -74.3283 71° East 310 357 8,000 -1,500 Descending FlightAware
Thu 05:13:20 PM 40.4928 -74.3012 71° East 310 357 7,600 -1,355 Descending FlightAware
Thu 05:13:35 PM 40.4999 -74.2743 70° East 307 353 7,300 -727 Descending FlightAware
Thu 05:13:53 PM 40.5085 -74.2425 71° East 309 356 7,200 -171 Descending FlightAware
Thu 05:14:10 PM 40.5160 -74.2146 70° East 311 358 7,200  Level FlightAware
Thu 05:14:31 PM 40.5267 -74.1751 68° East 310 357 7,200  Level FlightAware
Thu 05:14:41 PM 40.5324 -74.1567 46° Northeast 310 357 7,200 -581 Level FlightAware
Thu 05:15:02 PM 40.5526 -74.1296 23° Northeast 303 349 6,900 -1,231 Descending FlightAware
Thu 05:15:20 PM 40.5756 -74.1166 21° North 298 343 6,400 -1,500 Descending FlightAware
Thu 05:15:38 PM 40.5989 -74.1050 21° North 294 338 6,000 -1,273 Descending FlightAware
Thu 05:15:53 PM 40.6178 -74.0956 20° North 290 334 5,700 -1,200 Descending FlightAware
Thu 05:16:23 PM 40.6540 -74.0778 22° Northeast 286 329 5,100 -1,216 Descending FlightAware
Thu 05:17:07 PM 40.7082 -74.0493 356° North 282 325 4,200 -1,245 Descending FlightAware
Thu 05:17:16 PM 40.7167 -74.0500 30° Northeast 287 330 4,000  Descending New TRACON
Thu 05:18:29 PM 40.8030 -73.9834 28° Northeast 284 327 4,200 -350 Climbing FlightAware
Thu 05:19:16 PM 40.8500 -73.9500 37° Northeast 282 325 3,300 -673 Descending New TRACON
Thu 05:20:16 PM 40.9167 -73.8833 75° East 284 327 3,000 -650 Descending New TRACON
Thu 05:21:16 PM 40.9333 -73.8000 159° South 238 274 2,000 -500 Descending New TRACON
Thu 05:22:16 PM 40.9000 -73.7833 204° Southwest 171 197 2,000 -333 Level New TRACON
Thu 05:24:16 PM 40.8167 -73.8333 204° Southwest 122 140 1,000 -500 Descending New TRACON

Login

Don't have an account? Register now (free) for customized features, flight alerts, and more!